Time;durP1;ratioP1;P1;durP2;ratioP2;P2;SDS_P1;SDS_P2;PMS_P1;PMS_P2;Temp;Humidity;BMP_temperature;BMP_pressure;BME280_temperature;BME280_humidity;BME280_pressure;Samples;Min_cycle;Max_cycle;Signal;HPM_P1;HPM_P2
2022/11/27 00:00:32;;;;;;;13.90;4.70;;;7.70;99.90;;;;;;2083237;28;20029;-74
2022/11/27 00:01:35;;;;;;;15.43;4.05;;;7.70;99.90;;;;;;2078655;28;20114;-74
2022/11/27 00:02:35;;;;;;;10.02;3.63;;;7.70;99.90;;;;;;2078237;28;20112;-74
2022/11/27 00:03:36;;;;;;;14.48;3.90;;;7.70;99.90;;;;;;2069816;28;20022;-74
2022/11/27 00:04:37;;;;;;;11.23;3.63;;;7.70;99.90;;;;;;2077782;28;20045;-74
2022/11/27 00:05:37;;;;;;;10.05;4.28;;;7.70;99.90;;;;;;2076166;28;20112;-74
2022/11/27 00:06:39;;;;;;;13.30;3.97;;;7.70;99.90;;;;;;2077401;28;20037;-74
2022/11/27 00:07:40;;;;;;;14.35;4.35;;;7.70;99.90;;;;;;2077560;28;20075;-74
2022/11/27 00:08:41;;;;;;;13.63;3.90;;;7.70;99.90;;;;;;2084725;28;20025;-74
2022/11/27 00:09:42;;;;;;;8.82;3.85;;;7.60;99.90;;;;;;2085964;28;20032;-74
2022/11/27 00:10:42;;;;;;;10.63;3.85;;;7.70;99.90;;;;;;2075537;28;20025;-74
2022/11/27 00:11:43;;;;;;;12.43;3.78;;;7.70;99.90;;;;;;2074809;28;20030;-74
2022/11/27 00:12:44;;;;;;;12.40;4.00;;;7.60;99.90;;;;;;2078489;28;20872;-74
2022/11/27 00:13:45;;;;;;;10.93;4.00;;;7.60;99.90;;;;;;2076402;28;20559;-74
2022/11/27 00:14:47;;;;;;;10.82;4.15;;;7.60;99.90;;;;;;2068827;28;20402;-74
2022/11/27 00:15:48;;;;;;;12.32;3.17;;;7.60;99.90;;;;;;2076105;28;20457;-74
2022/11/27 00:16:49;;;;;;;11.70;3.97;;;7.60;99.90;;;;;;2077870;28;20112;-74
2022/11/27 00:17:52;;;;;;;10.05;4.00;;;7.60;99.90;;;;;;2077496;28;20041;-74
2022/11/27 00:18:59;;;;;;;9.18;3.90;;;7.60;99.90;;;;;;2084881;28;20029;-74
2022/11/27 00:19:59;;;;;;;13.27;4.68;;;7.60;99.90;;;;;;2081776;28;20483;-74
2022/11/27 00:21:07;;;;;;;10.48;3.75;;;7.60;99.90;;;;;;2077985;28;20025;-74
2022/11/27 00:22:08;;;;;;;14.35;4.10;;;7.60;99.90;;;;;;2077160;28;20030;-74
2022/11/27 00:23:08;;;;;;;9.45;3.78;;;7.60;99.90;;;;;;2076844;28;20018;-74
2022/11/27 00:24:10;;;;;;;10.60;4.00;;;7.50;99.90;;;;;;2077841;28;20055;-74
2022/11/27 00:25:11;;;;;;;8.68;3.95;;;7.60;99.90;;;;;;2075556;28;20759;-74
2022/11/27 00:26:12;;;;;;;12.02;3.72;;;7.60;99.90;;;;;;2084590;28;20487;-74
2022/11/27 00:27:12;;;;;;;10.88;3.85;;;7.60;99.90;;;;;;2084999;28;20700;-74
2022/11/27 00:28:13;;;;;;;11.27;3.97;;;7.60;99.90;;;;;;2076194;28;20095;-74
2022/11/27 00:29:13;;;;;;;17.02;5.22;;;7.60;99.90;;;;;;2076504;28;20158;-74
2022/11/27 00:30:14;;;;;;;8.95;3.85;;;7.60;99.90;;;;;;2075779;28;20025;-74
2022/11/27 00:31:21;;;;;;;6.55;3.50;;;7.50;99.90;;;;;;2084711;28;20082;-74
2022/11/27 00:32:21;;;;;;;11.02;4.82;;;7.60;99.90;;;;;;2077810;28;20025;-74
2022/11/27 00:33:22;;;;;;;7.63;3.55;;;7.50;99.90;;;;;;2077250;28;20029;-74
2022/11/27 00:34:22;;;;;;;10.65;3.90;;;7.60;99.90;;;;;;2076883;28;20025;-74
2022/11/27 00:35:23;;;;;;;8.00;3.70;;;7.50;99.90;;;;;;2074483;28;20071;-74
2022/11/27 00:36:25;;;;;;;9.63;4.63;;;7.50;99.90;;;;;;2076186;28;20341;-74
2022/11/27 00:37:25;;;;;;;8.50;3.65;;;7.50;99.90;;;;;;2077900;28;20041;-75
2022/11/27 00:38:26;;;;;;;13.45;4.55;;;7.50;99.90;;;;;;2078753;28;20068;-74
2022/11/27 00:39:26;;;;;;;10.02;3.88;;;7.50;99.90;;;;;;2076730;28;20041;-74
2022/11/27 00:40:27;;;;;;;12.18;3.88;;;7.50;99.90;;;;;;2074920;28;20807;-74
2022/11/27 00:41:29;;;;;;;9.52;3.83;;;7.50;99.90;;;;;;2075347;28;20117;-74
2022/11/27 00:42:29;;;;;;;10.73;4.03;;;7.50;99.90;;;;;;2074916;28;20511;-74
2022/11/27 00:43:30;;;;;;;12.10;4.07;;;7.50;99.90;;;;;;2077686;28;20634;-74
2022/11/27 00:44:30;;;;;;;8.70;4.05;;;7.50;99.90;;;;;;2077490;28;20021;-74
2022/11/27 00:45:31;;;;;;;12.00;4.55;;;7.50;99.90;;;;;;2076450;28;20037;-74
2022/11/27 00:46:33;;;;;;;12.82;4.38;;;7.50;99.90;;;;;;2076164;28;20041;-74
2022/11/27 00:47:33;;;;;;;12.85;4.53;;;7.50;99.90;;;;;;2073411;28;20021;-74
2022/11/27 00:48:34;;;;;;;7.00;3.50;;;7.50;99.90;;;;;;2076701;28;20021;-74
2022/11/27 00:49:35;;;;;;;11.93;4.13;;;7.40;99.90;;;;;;2075764;28;20025;-74
2022/11/27 00:50:36;;;;;;;7.05;3.70;;;7.50;99.90;;;;;;2076230;28;20025;-74
2022/11/27 00:51:36;;;;;;;12.88;3.88;;;7.50;99.90;;;;;;2083338;28;20025;-74
2022/11/27 00:52:37;;;;;;;11.23;3.83;;;7.50;99.90;;;;;;2085754;28;20025;-74
2022/11/27 00:53:38;;;;;;;15.60;4.20;;;7.50;99.90;;;;;;2076116;28;20464;-74
2022/11/27 00:54:38;;;;;;;9.65;3.85;;;7.40;99.90;;;;;;2077183;28;20021;-73
2022/11/27 00:55:39;;;;;;;11.43;3.88;;;7.40;99.90;;;;;;2076924;28;20060;-74
2022/11/27 00:56:39;;;;;;;8.45;3.90;;;7.40;99.90;;;;;;2076886;28;20044;-74
2022/11/27 00:57:40;;;;;;;8.70;3.80;;;7.40;99.90;;;;;;2078999;28;20016;-74
2022/11/27 00:58:43;;;;;;;11.00;4.30;;;7.40;99.90;;;;;;2077456;28;20041;-74
2022/11/27 00:59:43;;;;;;;8.82;4.20;;;7.40;99.90;;;;;;2084662;28;20503;-74
2022/11/27 01:00:44;;;;;;;7.20;3.72;;;7.40;99.90;;;;;;2083518;28;20488;-74
2022/11/27 01:01:45;;;;;;;9.10;3.85;;;7.40;99.90;;;;;;2076175;28;20148;-74
2022/11/27 01:02:45;;;;;;;10.38;3.95;;;7.40;99.90;;;;;;2076783;28;20028;-74
2022/11/27 01:03:46;;;;;;;11.73;4.50;;;7.40;99.90;;;;;;2076852;28;20030;-74
2022/11/27 01:04:47;;;;;;;9.60;4.20;;;7.40;99.90;;;;;;2074602;28;20021;-74
2022/11/27 01:05:48;;;;;;;8.88;3.80;;;7.40;99.90;;;;;;2075440;28;20026;-74
2022/11/27 01:06:49;;;;;;;8.77;3.80;;;7.40;99.90;;;;;;2083590;28;20059;-74
2022/11/27 01:07:49;;;;;;;9.35;3.95;;;7.30;99.90;;;;;;2075880;28;20017;-74
2022/11/27 01:08:50;;;;;;;11.82;4.72;;;7.30;99.90;;;;;;2076534;28;20689;-74
2022/11/27 01:09:50;;;;;;;10.35;4.03;;;7.30;99.90;;;;;;2077787;28;20124;-74
2022/11/27 01:10:54;;;;;;;14.00;4.07;;;7.30;99.90;;;;;;2077645;28;20030;-74
2022/11/27 01:11:54;;;;;;;11.52;3.95;;;7.30;99.90;;;;;;2077040;28;20022;-73
2022/11/27 01:12:55;;;;;;;6.65;3.65;;;7.30;99.90;;;;;;2076561;28;20026;-74
2022/11/27 01:13:58;;;;;;;11.32;4.10;;;7.30;99.90;;;;;;2077404;28;20048;-74
2022/11/27 01:14:58;;;;;;;10.00;4.00;;;7.30;99.90;;;;;;2076706;28;20104;-74
2022/11/27 01:16:05;;;;;;;9.35;4.00;;;7.30;99.90;;;;;;2075974;28;20022;-74
2022/11/27 01:17:06;;;;;;;8.35;4.45;;;7.30;99.90;;;;;;2077297;28;20080;-74
2022/11/27 01:18:06;;;;;;;6.88;3.60;;;7.30;99.90;;;;;;2076417;28;20032;-74
2022/11/27 01:19:09;;;;;;;9.60;3.88;;;7.30;99.90;;;;;;2075864;28;20057;-74
2022/11/27 01:20:10;;;;;;;5.57;3.67;;;7.30;99.90;;;;;;2075972;28;20033;-74
2022/11/27 01:21:11;;;;;;;10.80;3.78;;;7.30;99.90;;;;;;2076018;28;20029;-74
2022/11/27 01:22:12;;;;;;;8.77;3.90;;;7.30;99.90;;;;;;2077311;28;20160;-74
2022/11/27 01:23:12;;;;;;;7.80;4.03;;;7.30;99.90;;;;;;2075904;28;20478;-74
2022/11/27 01:24:14;;;;;;;8.00;3.72;;;7.30;99.90;;;;;;2074166;28;20049;-74
2022/11/27 01:25:15;;;;;;;8.35;3.72;;;7.20;99.90;;;;;;2073118;28;20025;-74
2022/11/27 01:26:16;;;;;;;5.65;3.63;;;7.30;99.90;;;;;;2083538;28;20029;-74
2022/11/27 01:27:17;;;;;;;6.32;3.08;;;7.20;99.90;;;;;;2077359;28;20091;-74
2022/11/27 01:28:18;;;;;;;8.48;3.75;;;7.20;99.90;;;;;;2076977;28;20025;-74
2022/11/27 01:29:18;;;;;;;6.90;3.60;;;7.20;99.90;;;;;;2076049;28;20152;-74
2022/11/27 01:30:19;;;;;;;8.77;3.75;;;7.20;99.90;;;;;;2076009;28;20108;-74
2022/11/27 01:31:23;;;;;;;8.30;3.47;;;7.20;99.90;;;;;;2076756;28;20030;-74
2022/11/27 01:32:24;;;;;;;6.13;3.38;;;7.20;99.90;;;;;;2075248;28;20084;-74
2022/11/27 01:33:25;;;;;;;7.35;3.25;;;7.20;99.90;;;;;;2076180;28;20022;-74
2022/11/27 01:34:25;;;;;;;10.38;4.03;;;7.20;99.90;;;;;;2072922;28;20028;-74
2022/11/27 01:35:26;;;;;;;7.72;3.58;;;7.20;99.90;;;;;;2075148;28;20116;-74
2022/11/27 01:36:28;;;;;;;12.95;3.85;;;7.20;99.90;;;;;;2078009;28;20054;-73
2022/11/27 01:37:29;;;;;;;9.77;3.55;;;7.20;99.90;;;;;;2075288;28;20417;-74
2022/11/27 01:38:30;;;;;;;7.75;3.70;;;7.20;99.90;;;;;;2076548;28;20022;-74
2022/11/27 01:39:31;;;;;;;7.35;3.95;;;7.20;99.90;;;;;;2076129;28;20036;-74
2022/11/27 01:40:31;;;;;;;7.28;3.50;;;7.20;99.90;;;;;;2077519;28;20033;-74
2022/11/27 01:41:34;;;;;;;8.50;3.70;;;7.10;99.90;;;;;;2076109;28;20048;-74
2022/11/27 01:42:35;;;;;;;8.60;4.28;;;7.20;99.90;;;;;;2077187;28;20440;-74
2022/11/27 01:43:46;;;;;;;6.93;3.38;;;7.10;99.90;;;;;;2077552;28;20022;-74
2022/11/27 01:44:50;;;;;;;9.75;3.83;;;7.10;99.90;;;;;;2074379;28;20025;-74
2022/11/27 01:45:51;;;;;;;7.10;3.65;;;7.10;99.90;;;;;;2077200;28;20017;-74
2022/11/27 01:47:02;;;;;;;10.30;4.15;;;7.10;99.90;;;;;;2076078;28;20033;-74
2022/11/27 01:48:03;;;;;;;8.90;3.92;;;7.10;99.90;;;;;;2076100;28;20077;-74
2022/11/27 01:49:28;;;;;;;5.43;3.65;;;7.10;99.90;;;;;;2076033;28;20026;-73
2022/11/27 01:50:39;;;;;;;9.15;4.00;;;7.10;99.90;;;;;;2071824;28;20041;-73
2022/11/27 01:51:55;;;;;;;6.88;3.95;;;7.10;99.90;;;;;;2076975;28;20112;-74
2022/11/27 01:53:01;;;;;;;7.05;4.63;;;7.10;99.90;;;;;;2078506;28;20172;-74
2022/11/27 01:54:02;;;;;;;8.15;3.67;;;7.10;99.90;;;;;;2073754;28;20034;-74
2022/11/27 01:55:11;;;;;;;9.68;3.97;;;7.00;99.90;;;;;;2074495;28;20758;-74
2022/11/27 01:56:13;;;;;;;7.32;3.78;;;7.10;99.90;;;;;;2077539;28;20489;-74
2022/11/27 01:57:35;;;;;;;8.23;3.53;;;7.00;99.90;;;;;;2077830;28;20132;-74
2022/11/27 01:58:36;;;;;;;8.20;4.03;;;7.10;99.90;;;;;;2077115;28;20037;-74
2022/11/27 01:59:37;;;;;;;7.10;4.30;;;7.00;99.90;;;;;;2076061;28;20070;-74
2022/11/27 02:00:38;;;;;;;9.18;4.15;;;7.00;99.90;;;;;;2078224;28;20036;-74
2022/11/27 02:01:38;;;;;;;7.68;3.80;;;7.00;99.90;;;;;;2075711;28;20026;-74
2022/11/27 02:02:43;;;;;;;5.35;3.70;;;7.00;99.90;;;;;;2075597;28;20040;-74
2022/11/27 02:03:43;;;;;;;7.00;3.80;;;7.10;99.90;;;;;;2075695;28;20032;-74
2022/11/27 02:04:44;;;;;;;10.00;4.35;;;7.00;99.90;;;;;;2075938;28;20562;-74
2022/11/27 02:05:44;;;;;;;7.40;3.88;;;7.00;99.90;;;;;;2076038;28;20045;-74
2022/11/27 02:06:45;;;;;;;7.35;4.13;;;7.00;99.90;;;;;;2075531;28;20029;-74
2022/11/27 02:07:47;;;;;;;8.35;3.70;;;7.00;99.90;;;;;;2075804;28;20028;-74
2022/11/27 02:08:47;;;;;;;9.48;4.28;;;7.10;99.90;;;;;;2077489;28;20021;-74
2022/11/27 02:09:48;;;;;;;6.93;3.97;;;7.10;99.90;;;;;;2079933;28;20089;-74
2022/11/27 02:11:02;;;;;;;7.90;4.15;;;7.10;99.90;;;;;;2076646;28;20025;-74
2022/11/27 02:12:12;;;;;;;8.60;3.83;;;7.10;99.90;;;;;;2077289;28;20183;-74
2022/11/27 02:13:33;;;;;;;9.10;4.18;;;7.00;99.90;;;;;;2078439;28;20026;-74
2022/11/27 02:15:16;;;;;;;8.48;4.10;;;7.00;99.90;;;;;;2075242;28;20029;-75
2022/11/27 02:16:28;;;;;;;6.78;3.50;;;7.00;99.90;;;;;;2077475;28;20120;-74
2022/11/27 02:17:41;;;;;;;9.18;4.30;;;6.90;99.90;;;;;;2075744;28;20050;-74
2022/11/27 02:19:03;;;;;;;9.70;3.97;;;6.90;99.90;;;;;;2079127;28;20037;-74
2022/11/27 02:20:22;;;;;;;11.27;4.60;;;6.90;99.90;;;;;;2078731;28;20505;-74
2022/11/27 02:21:38;;;;;;;8.23;3.78;;;6.90;99.90;;;;;;2079149;28;20034;-74
2022/11/27 02:23:11;;;;;;;8.25;4.07;;;6.90;99.90;;;;;;2083596;28;20119;-74
2022/11/27 02:24:25;;;;;;;9.07;4.25;;;6.90;99.90;;;;;;2069799;28;20086;-74
2022/11/27 02:25:43;;;;;;;7.40;3.92;;;6.90;99.90;;;;;;2076863;28;20053;-74
2022/11/27 02:27:03;;;;;;;7.15;3.75;;;6.90;99.90;;;;;;2077831;28;20029;-74
2022/11/27 02:28:32;;;;;;;6.63;4.13;;;6.90;99.90;;;;;;2078088;28;20474;-74
2022/11/27 02:29:34;;;;;;;6.93;3.85;;;6.90;99.90;;;;;;2077500;28;20037;-74
2022/11/27 02:30:42;;;;;;;11.27;4.30;;;6.90;99.90;;;;;;2084586;28;20029;-74
2022/11/27 02:32:12;;;;;;;7.13;3.63;;;6.90;99.90;;;;;;2084582;28;20094;-74
2022/11/27 02:33:15;;;;;;;8.63;4.50;;;6.90;99.90;;;;;;2076541;28;20034;-74
2022/11/27 02:34:23;;;;;;;10.65;3.92;;;6.80;99.90;;;;;;2074917;28;20535;-74
2022/11/27 02:35:30;;;;;;;6.13;3.95;;;6.80;99.90;;;;;;2078424;28;20061;-74
2022/11/27 02:36:34;;;;;;;5.72;3.72;;;6.80;99.90;;;;;;2077948;28;20420;-74
2022/11/27 02:37:43;;;;;;;8.43;4.00;;;6.90;99.90;;;;;;2078069;28;20076;-74
2022/11/27 02:38:50;;;;;;;7.25;4.20;;;6.80;99.90;;;;;;2077225;28;20041;-74
2022/11/27 02:40:11;;;;;;;6.68;4.28;;;6.80;99.90;;;;;;2078193;28;20380;-74
2022/11/27 02:41:18;;;;;;;6.30;3.83;;;6.80;99.90;;;;;;2076957;28;20461;-74
2022/11/27 02:42:20;;;;;;;7.90;3.88;;;6.80;99.90;;;;;;2074687;28;20037;-74
2022/11/27 02:43:33;;;;;;;8.40;4.28;;;6.80;99.90;;;;;;2083142;28;20029;-74
2022/11/27 02:44:40;;;;;;;7.90;4.07;;;6.80;99.90;;;;;;2082134;28;20067;-74
2022/11/27 02:45:43;;;;;;;8.23;3.58;;;6.80;99.90;;;;;;2075839;28;20040;-74
2022/11/27 02:46:46;;;;;;;9.18;4.10;;;6.80;99.90;;;;;;2078953;28;20409;-74
2022/11/27 02:47:48;;;;;;;7.45;3.78;;;6.70;99.90;;;;;;2078238;28;20032;-73
2022/11/27 02:48:50;;;;;;;8.07;4.00;;;6.80;99.90;;;;;;2079598;28;20029;-74
2022/11/27 02:49:55;;;;;;;5.72;3.65;;;6.80;99.90;;;;;;2076150;28;20171;-74
2022/11/27 02:50:56;;;;;;;6.43;3.53;;;6.80;99.90;;;;;;2078647;28;20045;-74
2022/11/27 02:52:01;;;;;;;7.85;3.75;;;6.80;99.90;;;;;;2078042;28;20025;-74
2022/11/27 02:53:07;;;;;;;9.05;4.32;;;6.80;99.90;;;;;;2077278;28;20120;-74
2022/11/27 02:54:12;;;;;;;10.38;4.32;;;6.80;99.90;;;;;;2078158;28;20017;-73
2022/11/27 02:55:17;;;;;;;7.28;3.83;;;6.80;99.90;;;;;;2075030;28;20038;-74
2022/11/27 02:56:22;;;;;;;8.07;3.83;;;6.70;99.90;;;;;;2078476;28;20018;-74
2022/11/27 02:57:26;;;;;;;7.30;4.10;;;6.80;99.90;;;;;;2075485;28;20079;-74
2022/11/27 02:58:28;;;;;;;9.07;4.18;;;6.70;99.90;;;;;;2078241;28;20054;-74
2022/11/27 02:59:32;;;;;;;9.27;4.72;;;6.80;99.90;;;;;;2077228;28;20029;-74
2022/11/27 03:00:34;;;;;;;9.18;4.03;;;6.80;99.90;;;;;;2077381;28;20168;-73
2022/11/27 03:01:40;;;;;;;6.78;4.25;;;6.80;99.90;;;;;;2077724;28;20505;-74
2022/11/27 03:02:47;;;;;;;6.68;3.97;;;6.80;99.90;;;;;;2077935;28;20043;-74
2022/11/27 03:03:53;;;;;;;5.97;3.67;;;6.80;99.90;;;;;;2078506;28;20409;-74
2022/11/27 03:04:57;;;;;;;6.55;3.95;;;6.80;99.90;;;;;;2077724;28;20542;-74
2022/11/27 03:06:04;;;;;;;9.68;4.00;;;6.80;99.90;;;;;;2077229;28;20470;-74
2022/11/27 03:07:12;;;;;;;4.88;3.55;;;6.80;99.90;;;;;;2075821;28;20497;-74
2022/11/27 03:08:22;;;;;;;6.53;3.67;;;6.80;99.90;;;;;;2077117;28;20108;-74
2022/11/27 03:09:37;;;;;;;8.73;4.25;;;6.80;99.90;;;;;;2076181;28;20044;-74
2022/11/27 03:10:53;;;;;;;8.30;3.97;;;6.80;99.90;;;;;;2077629;28;20160;-74
2022/11/27 03:11:54;;;;;;;8.65;4.97;;;6.80;99.90;;;;;;2077874;28;20026;-74
2022/11/27 03:12:55;;;;;;;8.25;4.38;;;6.70;99.90;;;;;;2077751;28;20025;-74
2022/11/27 03:14:00;;;;;;;8.43;4.50;;;6.80;99.90;;;;;;2077893;28;20072;-74
2022/11/27 03:15:02;;;;;;;8.52;4.15;;;6.80;99.90;;;;;;2077047;28;20026;-74
2022/11/27 03:16:11;;;;;;;8.48;4.35;;;6.70;99.90;;;;;;2077405;28;20042;-74
2022/11/27 03:17:53;;;;;;;8.77;5.15;;;6.70;99.90;;;;;;2078731;28;20038;-74
2022/11/27 03:19:21;;;;;;;6.43;3.83;;;6.70;99.90;;;;;;2079611;28;20530;-74
2022/11/27 03:20:29;;;;;;;5.90;4.30;;;6.70;99.90;;;;;;2077295;28;20686;-74
2022/11/27 03:21:37;;;;;;;8.57;4.90;;;6.70;99.90;;;;;;2075147;28;20025;-74
2022/11/27 03:22:38;;;;;;;6.82;4.60;;;6.70;99.90;;;;;;2076458;28;20155;-74
2022/11/27 03:23:38;;;;;;;7.93;4.68;;;6.70;99.90;;;;;;2076720;28;20025;-74
2022/11/27 03:24:39;;;;;;;7.95;5.05;;;6.70;99.90;;;;;;2077061;28;20056;-73
2022/11/27 03:25:40;;;;;;;7.80;4.70;;;6.70;99.90;;;;;;2078643;28;20616;-74
2022/11/27 03:26:40;;;;;;;12.38;4.82;;;6.70;99.90;;;;;;2078086;28;20064;-74
2022/11/27 03:28:03;;;;;;;12.30;5.07;;;6.80;99.90;;;;;;2084766;28;20029;-74
2022/11/27 03:29:09;;;;;;;10.32;4.53;;;6.70;99.90;;;;;;2076522;28;20113;-74
2022/11/27 03:30:10;;;;;;;8.13;4.40;;;6.70;99.90;;;;;;2077207;28;20232;-74
2022/11/27 03:31:11;;;;;;;7.90;4.80;;;6.70;99.90;;;;;;2075980;28;20025;-74
2022/11/27 03:32:11;;;;;;;8.13;4.50;;;6.70;99.90;;;;;;2075195;28;20037;-74
2022/11/27 03:33:12;;;;;;;7.53;4.70;;;6.70;99.90;;;;;;2075485;28;20034;-74
2022/11/27 03:34:15;;;;;;;9.75;4.57;;;6.70;99.90;;;;;;2078435;28;20041;-74
2022/11/27 03:35:18;;;;;;;8.10;4.93;;;6.70;99.90;;;;;;2085211;28;20017;-74
2022/11/27 03:36:20;;;;;;;8.90;5.20;;;6.70;99.90;;;;;;2084309;28;20030;-74
2022/11/27 03:37:22;;;;;;;10.13;4.90;;;6.80;99.90;;;;;;2078162;28;20029;-74
2022/11/27 03:38:22;;;;;;;8.88;4.53;;;6.80;99.90;;;;;;2076647;28;20030;-74
2022/11/27 03:39:24;;;;;;;8.55;4.50;;;6.70;99.90;;;;;;2078166;28;20438;-74
2022/11/27 03:40:40;;;;;;;7.30;4.43;;;6.80;99.90;;;;;;2079378;28;20051;-74
2022/11/27 03:41:58;;;;;;;10.38;4.70;;;6.80;99.90;;;;;;2076391;28;20164;-74
2022/11/27 03:43:16;;;;;;;7.57;4.05;;;6.80;99.90;;;;;;2076918;28;20680;-74
2022/11/27 03:44:37;;;;;;;6.25;4.32;;;6.70;99.90;;;;;;2077976;28;20084;-74
2022/11/27 03:45:51;;;;;;;7.50;4.75;;;6.70;99.90;;;;;;2077324;28;20174;-74
2022/11/27 03:47:09;;;;;;;9.82;5.63;;;6.70;99.90;;;;;;2077685;28;20029;-74
2022/11/27 03:48:22;;;;;;;8.55;5.00;;;6.70;99.90;;;;;;2076499;28;20033;-74
2022/11/27 03:49:54;;;;;;;11.13;4.32;;;6.70;99.90;;;;;;2077500;28;20549;-74
2022/11/27 03:51:18;;;;;;;11.38;5.57;;;6.70;99.90;;;;;;2078033;28;20026;-74
2022/11/27 03:53:00;;;;;;;7.53;4.75;;;6.70;99.90;;;;;;2076658;28;20014;-74
2022/11/27 03:54:25;;;;;;;10.85;5.50;;;6.70;99.90;;;;;;2077741;28;20051;-74
2022/11/27 03:55:49;;;;;;;8.02;5.75;;;6.70;99.90;;;;;;2077329;28;20120;-74
2022/11/27 03:57:22;;;;;;;9.13;5.50;;;6.70;99.90;;;;;;2077287;28;20448;-74
2022/11/27 03:58:39;;;;;;;9.35;5.30;;;6.60;99.90;;;;;;2073052;28;20052;-74
2022/11/27 03:59:44;;;;;;;9.40;5.30;;;6.70;99.90;;;;;;2076922;28;20385;-74
2022/11/27 04:00:49;;;;;;;9.48;5.93;;;6.70;99.90;;;;;;2078217;28;20013;-74
2022/11/27 04:01:49;;;;;;;10.57;5.50;;;6.60;99.90;;;;;;2078700;28;20466;-74
2022/11/27 04:02:52;;;;;;;12.00;6.07;;;6.60;99.90;;;;;;2075394;28;20044;-74
2022/11/27 04:03:52;;;;;;;11.15;5.88;;;6.70;99.90;;;;;;2077844;28;20112;-74
2022/11/27 04:04:53;;;;;;;12.23;5.43;;;6.70;99.90;;;;;;2076546;28;20029;-74
2022/11/27 04:05:54;;;;;;;8.88;5.32;;;6.70;99.90;;;;;;2077842;28;21563;-74
2022/11/27 04:06:54;;;;;;;10.40;5.80;;;6.80;99.90;;;;;;2076868;28;20080;-74
2022/11/27 04:07:55;;;;;;;8.90;5.93;;;6.80;99.90;;;;;;2084705;28;20036;-74
2022/11/27 04:08:56;;;;;;;10.88;6.03;;;6.80;99.90;;;;;;2084462;28;20021;-74
2022/11/27 04:09:56;;;;;;;9.13;5.78;;;6.80;99.90;;;;;;2078712;28;20113;-74
2022/11/27 04:10:57;;;;;;;10.05;6.15;;;6.80;99.90;;;;;;2077967;28;20481;-74
2022/11/27 04:11:57;;;;;;;9.75;5.85;;;6.80;99.90;;;;;;2078049;28;20377;-74
2022/11/27 04:12:58;;;;;;;10.10;6.35;;;6.90;99.90;;;;;;2075024;28;20065;-74
2022/11/27 04:13:58;;;;;;;11.35;6.47;;;6.90;99.90;;;;;;2076132;28;20032;-74
2022/11/27 04:14:59;;;;;;;12.38;6.10;;;6.90;99.90;;;;;;2078384;28;20053;-74
2022/11/27 04:16:01;;;;;;;10.55;6.05;;;6.90;99.90;;;;;;2077331;28;20021;-74
2022/11/27 04:17:01;;;;;;;9.20;6.38;;;6.90;99.90;;;;;;2076908;28;20018;-74
2022/11/27 04:18:02;;;;;;;9.90;6.15;;;6.90;99.90;;;;;;2077819;28;20045;-74
2022/11/27 04:19:03;;;;;;;10.55;6.00;;;6.90;99.90;;;;;;2077269;28;20104;-74
2022/11/27 04:20:05;;;;;;;11.45;6.60;;;7.00;99.90;;;;;;2077014;28;20014;-74
2022/11/27 04:21:05;;;;;;;10.00;6.47;;;7.00;99.90;;;;;;2076621;28;20025;-74
2022/11/27 04:22:06;;;;;;;11.68;5.82;;;7.00;99.90;;;;;;2077364;28;20139;-74
2022/11/27 04:23:06;;;;;;;15.00;6.43;;;7.00;99.90;;;;;;2077473;28;20029;-73
2022/11/27 04:24:07;;;;;;;9.45;5.93;;;7.00;99.90;;;;;;2069147;28;20434;-74
2022/11/27 04:25:08;;;;;;;8.80;5.88;;;7.00;99.90;;;;;;2077232;28;20068;-74
2022/11/27 04:26:08;;;;;;;12.75;7.05;;;7.00;99.90;;;;;;2076215;28;20030;-74
2022/11/27 04:27:09;;;;;;;9.63;6.07;;;7.00;99.90;;;;;;2074127;28;20030;-74
2022/11/27 04:28:10;;;;;;;10.20;5.85;;;7.00;99.90;;;;;;2073511;28;20032;-74
2022/11/27 04:29:10;;;;;;;9.60;6.40;;;7.10;99.90;;;;;;2074923;28;20033;-74
2022/11/27 04:30:12;;;;;;;9.73;5.90;;;7.10;99.90;;;;;;2076948;28;20053;-74
2022/11/27 04:31:12;;;;;;;10.82;5.82;;;7.10;99.90;;;;;;2078106;28;20046;-74
2022/11/27 04:32:13;;;;;;;7.38;5.53;;;7.10;99.90;;;;;;2075668;28;20680;-74
2022/11/27 04:33:13;;;;;;;10.60;6.30;;;7.10;99.90;;;;;;2076875;28;20140;-74
2022/11/27 04:34:14;;;;;;;11.30;6.13;;;7.10;99.90;;;;;;2077294;28;20037;-74
2022/11/27 04:35:15;;;;;;;10.82;6.30;;;7.10;99.90;;;;;;2077695;28;20032;-74
2022/11/27 04:36:15;;;;;;;10.32;6.18;;;7.10;99.90;;;;;;2075644;28;20022;-74
2022/11/27 04:37:16;;;;;;;10.98;6.75;;;7.10;99.90;;;;;;2073721;28;20105;-74
2022/11/27 04:38:17;;;;;;;11.88;5.82;;;7.20;99.90;;;;;;2083227;28;20045;-74
2022/11/27 04:39:18;;;;;;;10.20;6.93;;;7.20;99.90;;;;;;2084451;28;20041;-74
2022/11/27 04:40:19;;;;;;;12.32;6.03;;;7.20;99.90;;;;;;2084919;28;20021;-74
2022/11/27 04:41:19;;;;;;;14.40;6.53;;;7.10;99.90;;;;;;2085707;28;20025;-74
2022/11/27 04:42:20;;;;;;;9.98;5.85;;;7.20;99.90;;;;;;2076198;28;20749;-74
2022/11/27 04:43:20;;;;;;;10.93;6.60;;;7.20;99.90;;;;;;2076504;28;20564;-74
2022/11/27 04:44:21;;;;;;;12.40;5.75;;;7.20;99.90;;;;;;2077194;28;20771;-74
2022/11/27 04:45:22;;;;;;;13.50;6.45;;;7.20;99.90;;;;;;2075888;28;20034;-74
2022/11/27 04:46:22;;;;;;;13.23;6.95;;;7.20;99.90;;;;;;2077026;28;20148;-74
2022/11/27 04:47:23;;;;;;;8.38;6.20;;;7.30;99.90;;;;;;2076477;28;20101;-74
2022/11/27 04:48:23;;;;;;;8.82;5.93;;;7.30;99.90;;;;;;2073662;28;20746;-74
2022/11/27 04:49:24;;;;;;;9.65;5.90;;;7.30;99.90;;;;;;2075039;28;20121;-74
2022/11/27 04:50:24;;;;;;;9.15;5.85;;;7.30;99.90;;;;;;2076374;28;20489;-74
2022/11/27 04:51:25;;;;;;;11.75;6.32;;;7.30;99.90;;;;;;2075442;28;20021;-74
2022/11/27 04:52:25;;;;;;;12.63;6.72;;;7.30;99.90;;;;;;2076949;28;20085;-74
2022/11/27 04:53:26;;;;;;;9.40;5.72;;;7.30;99.90;;;;;;2077284;28;20700;-74
2022/11/27 04:54:26;;;;;;;9.95;5.25;;;7.30;99.90;;;;;;2076748;28;20022;-74
2022/11/27 04:55:28;;;;;;;7.93;5.55;;;7.30;99.90;;;;;;2077977;28;20033;-74
2022/11/27 04:56:28;;;;;;;12.10;5.90;;;7.30;99.90;;;;;;2076609;28;20056;-74
2022/11/27 04:57:29;;;;;;;9.50;6.57;;;7.30;99.90;;;;;;2076080;28;20032;-74
2022/11/27 04:58:29;;;;;;;10.65;6.03;;;7.40;99.90;;;;;;2076315;28;20687;-74
2022/11/27 04:59:30;;;;;;;9.38;5.65;;;7.40;99.90;;;;;;2076466;28;20053;-74
2022/11/27 05:00:30;;;;;;;13.20;6.20;;;7.40;99.90;;;;;;2073916;28;20127;-74
2022/11/27 05:01:31;;;;;;;11.52;6.43;;;7.40;99.90;;;;;;2075255;28;20285;-74
2022/11/27 05:02:31;;;;;;;10.25;5.63;;;7.40;99.90;;;;;;2075559;28;20033;-74
2022/11/27 05:03:32;;;;;;;9.30;6.60;;;7.40;99.90;;;;;;2077074;28;20087;-74
2022/11/27 05:04:33;;;;;;;10.85;5.45;;;7.40;99.90;;;;;;2075351;28;20033;-74
2022/11/27 05:05:33;;;;;;;12.32;6.07;;;7.40;99.90;;;;;;2077818;28;20026;-74
2022/11/27 05:06:34;;;;;;;9.50;5.75;;;7.40;99.90;;;;;;2074912;28;20068;-74
2022/11/27 05:07:34;;;;;;;8.73;5.90;;;7.40;99.90;;;;;;2075804;28;20057;-74
2022/11/27 05:08:35;;;;;;;9.82;5.85;;;7.40;99.90;;;;;;2077610;28;20030;-74
2022/11/27 05:09:35;;;;;;;9.57;5.70;;;7.50;99.90;;;;;;2075633;28;20424;-74
2022/11/27 05:10:36;;;;;;;12.35;5.80;;;7.50;99.90;;;;;;2076522;28;20084;-74
2022/11/27 05:11:36;;;;;;;8.95;5.95;;;7.50;99.90;;;;;;2078944;28;20056;-74
2022/11/27 05:12:37;;;;;;;8.57;6.10;;;7.50;99.90;;;;;;2084866;28;20516;-74
2022/11/27 05:13:38;;;;;;;12.02;5.85;;;7.50;99.90;;;;;;2086108;28;20146;-73
2022/11/27 05:14:39;;;;;;;10.27;6.20;;;7.50;99.90;;;;;;2076913;28;20031;-74
2022/11/27 05:15:39;;;;;;;8.95;5.30;;;7.50;99.90;;;;;;2083671;28;20028;-74
2022/11/27 05:16:40;;;;;;;9.75;6.28;;;7.50;99.90;;;;;;2073955;28;20470;-73
2022/11/27 05:17:41;;;;;;;9.48;6.28;;;7.50;99.90;;;;;;2066358;28;20053;-74
2022/11/27 05:18:41;;;;;;;10.80;5.68;;;7.50;99.90;;;;;;2075872;28;20029;-74
2022/11/27 05:19:42;;;;;;;10.00;5.93;;;7.50;99.90;;;;;;2076762;28;20029;-74
2022/11/27 05:20:43;;;;;;;13.75;6.10;;;7.50;99.90;;;;;;2075388;28;20034;-74
2022/11/27 05:21:45;;;;;;;11.30;6.38;;;7.60;99.90;;;;;;2085495;28;20127;-74
2022/11/27 05:22:47;;;;;;;8.68;5.35;;;7.60;99.90;;;;;;2076538;28;20037;-74
2022/11/27 05:23:47;;;;;;;11.20;6.00;;;7.60;99.90;;;;;;2075789;28;20603;-74
2022/11/27 05:24:48;;;;;;;9.20;5.55;;;7.60;99.90;;;;;;2076904;28;20504;-74
2022/11/27 05:25:48;;;;;;;10.35;5.68;;;7.60;99.90;;;;;;2077463;28;20079;-74
2022/11/27 05:26:49;;;;;;;8.77;5.43;;;7.60;99.90;;;;;;2077304;28;20042;-74
2022/11/27 05:27:49;;;;;;;11.07;5.57;;;7.60;99.90;;;;;;2077855;28;20605;-74
2022/11/27 05:28:50;;;;;;;10.60;6.43;;;7.60;99.90;;;;;;2075768;28;20050;-74
2022/11/27 05:29:50;;;;;;;10.43;5.70;;;7.60;99.90;;;;;;2076580;28;20013;-74
2022/11/27 05:30:51;;;;;;;12.95;6.30;;;7.60;99.90;;;;;;2076603;28;20095;-74
2022/11/27 05:31:52;;;;;;;10.18;5.35;;;7.60;99.90;;;;;;2076933;28;20029;-74
2022/11/27 05:32:52;;;;;;;11.73;5.90;;;7.70;99.90;;;;;;2076996;28;20029;-74
2022/11/27 05:33:53;;;;;;;10.90;6.30;;;7.70;99.90;;;;;;2077283;28;20104;-74
2022/11/27 05:34:54;;;;;;;8.48;5.65;;;7.60;99.90;;;;;;2076261;28;20025;-74
2022/11/27 05:35:54;;;;;;;11.13;6.30;;;7.70;99.90;;;;;;2078244;28;20018;-74
2022/11/27 05:36:55;;;;;;;12.38;6.15;;;7.70;99.90;;;;;;2077764;28;20100;-74